sensor_id;sensor_type;location;lat;lon;timestamp;P1;durP1;ratioP1;P2;durP2;ratioP2
21122;SDS011;10719;48.130;11.630;2023-05-07T00:00:33;13.52;;;5.20;;
21122;SDS011;10719;48.130;11.630;2023-05-07T00:02:59;10.63;;;4.43;;
21122;SDS011;10719;48.130;11.630;2023-05-07T00:05:25;14.75;;;5.13;;
21122;SDS011;10719;48.130;11.630;2023-05-07T00:07:50;14.93;;;5.10;;
21122;SDS011;10719;48.130;11.630;2023-05-07T00:10:17;9.30;;;3.83;;
21122;SDS011;10719;48.130;11.630;2023-05-07T00:12:44;10.90;;;4.35;;
21122;SDS011;10719;48.130;11.630;2023-05-07T00:15:09;12.85;;;4.75;;
21122;SDS011;10719;48.130;11.630;2023-05-07T00:17:35;10.38;;;4.60;;
21122;SDS011;10719;48.130;11.630;2023-05-07T00:20:02;12.60;;;5.07;;
21122;SDS011;10719;48.130;11.630;2023-05-07T00:22:29;11.73;;;4.57;;
21122;SDS011;10719;48.130;11.630;2023-05-07T00:24:55;9.73;;;4.15;;
21122;SDS011;10719;48.130;11.630;2023-05-07T00:27:21;10.27;;;4.47;;
21122;SDS011;10719;48.130;11.630;2023-05-07T00:29:47;16.15;;;5.45;;
21122;SDS011;10719;48.130;11.630;2023-05-07T00:32:12;11.80;;;4.85;;
21122;SDS011;10719;48.130;11.630;2023-05-07T00:34:38;11.88;;;5.55;;
21122;SDS011;10719;48.130;11.630;2023-05-07T00:37:04;12.07;;;4.85;;
21122;SDS011;10719;48.130;11.630;2023-05-07T00:39:30;9.75;;;4.60;;
21122;SDS011;10719;48.130;11.630;2023-05-07T00:41:55;14.05;;;4.88;;
21122;SDS011;10719;48.130;11.630;2023-05-07T00:44:21;10.27;;;4.53;;
21122;SDS011;10719;48.130;11.630;2023-05-07T00:46:47;12.05;;;4.93;;
21122;SDS011;10719;48.130;11.630;2023-05-07T00:49:14;11.60;;;4.47;;
21122;SDS011;10719;48.130;11.630;2023-05-07T00:51:40;9.10;;;4.40;;
21122;SDS011;10719;48.130;11.630;2023-05-07T00:54:06;10.63;;;4.47;;
21122;SDS011;10719;48.130;11.630;2023-05-07T00:56:33;16.25;;;5.47;;
21122;SDS011;10719;48.130;11.630;2023-05-07T00:59:00;11.93;;;4.90;;
21122;SDS011;10719;48.130;11.630;2023-05-07T01:01:27;11.52;;;4.97;;
21122;SDS011;10719;48.130;11.630;2023-05-07T01:03:53;16.30;;;5.28;;
21122;SDS011;10719;48.130;11.630;2023-05-07T01:06:19;11.32;;;4.60;;
21122;SDS011;10719;48.130;11.630;2023-05-07T01:08:46;10.70;;;4.68;;
21122;SDS011;10719;48.130;11.630;2023-05-07T01:11:12;14.30;;;5.00;;
21122;SDS011;10719;48.130;11.630;2023-05-07T01:13:38;14.75;;;5.38;;
21122;SDS011;10719;48.130;11.630;2023-05-07T01:16:05;9.75;;;4.25;;
21122;SDS011;10719;48.130;11.630;2023-05-07T01:18:31;11.60;;;4.88;;
21122;SDS011;10719;48.130;11.630;2023-05-07T01:20:58;9.68;;;4.40;;
21122;SDS011;10719;48.130;11.630;2023-05-07T01:23:25;11.95;;;4.88;;
21122;SDS011;10719;48.130;11.630;2023-05-07T01:25:52;10.50;;;4.82;;
21122;SDS011;10719;48.130;11.630;2023-05-07T01:28:18;20.60;;;5.75;;
21122;SDS011;10719;48.130;11.630;2023-05-07T01:30:45;11.43;;;4.47;;
21122;SDS011;10719;48.130;11.630;2023-05-07T01:33:15;10.82;;;4.28;;
21122;SDS011;10719;48.130;11.630;2023-05-07T01:35:43;12.38;;;4.82;;
21122;SDS011;10719;48.130;11.630;2023-05-07T01:38:12;13.35;;;4.97;;
21122;SDS011;10719;48.130;11.630;2023-05-07T01:40:38;10.13;;;4.05;;
21122;SDS011;10719;48.130;11.630;2023-05-07T01:43:04;11.30;;;4.35;;
21122;SDS011;10719;48.130;11.630;2023-05-07T01:45:30;9.40;;;4.43;;
21122;SDS011;10719;48.130;11.630;2023-05-07T01:47:57;9.98;;;4.30;;
21122;SDS011;10719;48.130;11.630;2023-05-07T01:50:23;10.40;;;4.05;;
21122;SDS011;10719;48.130;11.630;2023-05-07T01:52:50;12.23;;;4.63;;
21122;SDS011;10719;48.130;11.630;2023-05-07T01:55:16;10.57;;;4.70;;
21122;SDS011;10719;48.130;11.630;2023-05-07T01:57:41;17.27;;;5.07;;
21122;SDS011;10719;48.130;11.630;2023-05-07T02:00:07;12.80;;;4.68;;
21122;SDS011;10719;48.130;11.630;2023-05-07T02:02:34;12.55;;;5.25;;
21122;SDS011;10719;48.130;11.630;2023-05-07T02:05:00;10.75;;;4.60;;
21122;SDS011;10719;48.130;11.630;2023-05-07T02:07:26;8.77;;;4.18;;
21122;SDS011;10719;48.130;11.630;2023-05-07T02:09:52;10.07;;;4.30;;
21122;SDS011;10719;48.130;11.630;2023-05-07T02:12:20;10.20;;;4.22;;
21122;SDS011;10719;48.130;11.630;2023-05-07T02:14:46;8.82;;;4.07;;
21122;SDS011;10719;48.130;11.630;2023-05-07T02:17:11;10.70;;;4.50;;
21122;SDS011;10719;48.130;11.630;2023-05-07T02:19:37;11.35;;;4.63;;
21122;SDS011;10719;48.130;11.630;2023-05-07T02:22:02;9.20;;;4.45;;
21122;SDS011;10719;48.130;11.630;2023-05-07T02:24:28;9.07;;;4.05;;
21122;SDS011;10719;48.130;11.630;2023-05-07T02:26:53;10.57;;;4.28;;
21122;SDS011;10719;48.130;11.630;2023-05-07T02:29:19;12.10;;;4.43;;
21122;SDS011;10719;48.130;11.630;2023-05-07T02:31:45;13.32;;;3.97;;
21122;SDS011;10719;48.130;11.630;2023-05-07T02:34:10;9.30;;;4.32;;
21122;SDS011;10719;48.130;11.630;2023-05-07T02:36:36;11.32;;;4.30;;
21122;SDS011;10719;48.130;11.630;2023-05-07T02:39:02;10.40;;;4.30;;
21122;SDS011;10719;48.130;11.630;2023-05-07T02:41:27;10.82;;;3.78;;
21122;SDS011;10719;48.130;11.630;2023-05-07T02:43:53;10.75;;;4.40;;
21122;SDS011;10719;48.130;11.630;2023-05-07T02:46:19;14.15;;;4.30;;
21122;SDS011;10719;48.130;11.630;2023-05-07T02:48:44;9.85;;;3.90;;
21122;SDS011;10719;48.130;11.630;2023-05-07T02:51:10;10.30;;;4.15;;
21122;SDS011;10719;48.130;11.630;2023-05-07T02:53:35;9.95;;;4.28;;
21122;SDS011;10719;48.130;11.630;2023-05-07T02:56:01;10.15;;;4.25;;
21122;SDS011;10719;48.130;11.630;2023-05-07T02:58:27;15.35;;;4.43;;
21122;SDS011;10719;48.130;11.630;2023-05-07T03:00:53;16.48;;;4.70;;
21122;SDS011;10719;48.130;11.630;2023-05-07T03:03:22;11.15;;;4.72;;
21122;SDS011;10719;48.130;11.630;2023-05-07T03:05:47;11.30;;;4.80;;
21122;SDS011;10719;48.130;11.630;2023-05-07T03:08:13;9.38;;;4.13;;
21122;SDS011;10719;48.130;11.630;2023-05-07T03:10:38;10.65;;;4.20;;
21122;SDS011;10719;48.130;11.630;2023-05-07T03:13:04;11.85;;;4.65;;
21122;SDS011;10719;48.130;11.630;2023-05-07T03:15:30;9.07;;;4.07;;
21122;SDS011;10719;48.130;11.630;2023-05-07T03:17:56;14.07;;;4.65;;
21122;SDS011;10719;48.130;11.630;2023-05-07T03:20:21;9.60;;;3.95;;
21122;SDS011;10719;48.130;11.630;2023-05-07T03:22:47;11.10;;;4.22;;
21122;SDS011;10719;48.130;11.630;2023-05-07T03:25:19;10.73;;;4.32;;
21122;SDS011;10719;48.130;11.630;2023-05-07T03:27:45;8.05;;;3.85;;
21122;SDS011;10719;48.130;11.630;2023-05-07T03:30:11;10.25;;;3.63;;
21122;SDS011;10719;48.130;11.630;2023-05-07T03:32:37;11.50;;;3.97;;
21122;SDS011;10719;48.130;11.630;2023-05-07T03:35:02;9.23;;;3.88;;
21122;SDS011;10719;48.130;11.630;2023-05-07T03:37:28;11.02;;;4.20;;
21122;SDS011;10719;48.130;11.630;2023-05-07T03:39:54;10.15;;;4.18;;
21122;SDS011;10719;48.130;11.630;2023-05-07T03:42:20;12.25;;;4.47;;
21122;SDS011;10719;48.130;11.630;2023-05-07T03:44:45;10.07;;;3.83;;
21122;SDS011;10719;48.130;11.630;2023-05-07T03:47:11;9.45;;;4.07;;
21122;SDS011;10719;48.130;11.630;2023-05-07T03:49:38;9.40;;;4.10;;
21122;SDS011;10719;48.130;11.630;2023-05-07T03:52:04;8.55;;;3.47;;
21122;SDS011;10719;48.130;11.630;2023-05-07T03:54:30;9.25;;;3.97;;
21122;SDS011;10719;48.130;11.630;2023-05-07T03:56:55;9.27;;;4.28;;
21122;SDS011;10719;48.130;11.630;2023-05-07T03:59:21;9.52;;;4.15;;
21122;SDS011;10719;48.130;11.630;2023-05-07T04:01:47;9.20;;;3.80;;
21122;SDS011;10719;48.130;11.630;2023-05-07T04:04:14;13.00;;;4.38;;
21122;SDS011;10719;48.130;11.630;2023-05-07T04:06:40;9.85;;;3.60;;
21122;SDS011;10719;48.130;11.630;2023-05-07T04:09:06;7.72;;;3.30;;
21122;SDS011;10719;48.130;11.630;2023-05-07T04:11:31;9.50;;;3.83;;
21122;SDS011;10719;48.130;11.630;2023-05-07T04:13:57;8.05;;;3.60;;
21122;SDS011;10719;48.130;11.630;2023-05-07T04:16:22;11.25;;;4.15;;
21122;SDS011;10719;48.130;11.630;2023-05-07T04:18:48;7.78;;;3.30;;
21122;SDS011;10719;48.130;11.630;2023-05-07T04:21:17;8.68;;;3.72;;
21122;SDS011;10719;48.130;11.630;2023-05-07T04:23:45;10.63;;;3.22;;
21122;SDS011;10719;48.130;11.630;2023-05-07T04:26:11;9.75;;;3.60;;
21122;SDS011;10719;48.130;11.630;2023-05-07T04:28:38;8.73;;;4.00;;
21122;SDS011;10719;48.130;11.630;2023-05-07T04:31:04;6.63;;;3.00;;
21122;SDS011;10719;48.130;11.630;2023-05-07T04:33:30;7.25;;;3.20;;
21122;SDS011;10719;48.130;11.630;2023-05-07T04:35:56;7.57;;;3.40;;
21122;SDS011;10719;48.130;11.630;2023-05-07T04:38:22;7.00;;;2.78;;
21122;SDS011;10719;48.130;11.630;2023-05-07T04:40:48;7.20;;;3.15;;
21122;SDS011;10719;48.130;11.630;2023-05-07T04:43:14;9.52;;;3.25;;
21122;SDS011;10719;48.130;11.630;2023-05-07T04:45:40;8.13;;;3.22;;
21122;SDS011;10719;48.130;11.630;2023-05-07T04:48:07;6.75;;;2.92;;
21122;SDS011;10719;48.130;11.630;2023-05-07T04:50:34;8.68;;;3.33;;
21122;SDS011;10719;48.130;11.630;2023-05-07T04:52:59;5.68;;;2.63;;
21122;SDS011;10719;48.130;11.630;2023-05-07T04:55:25;7.32;;;3.00;;
21122;SDS011;10719;48.130;11.630;2023-05-07T04:57:51;5.78;;;3.05;;
21122;SDS011;10719;48.130;11.630;2023-05-07T05:00:17;5.60;;;2.95;;
21122;SDS011;10719;48.130;11.630;2023-05-07T05:02:44;7.95;;;3.10;;
21122;SDS011;10719;48.130;11.630;2023-05-07T05:05:10;5.38;;;2.83;;
21122;SDS011;10719;48.130;11.630;2023-05-07T05:07:36;10.80;;;3.60;;
21122;SDS011;10719;48.130;11.630;2023-05-07T05:10:02;9.45;;;3.35;;
21122;SDS011;10719;48.130;11.630;2023-05-07T05:12:28;6.35;;;3.10;;
21122;SDS011;10719;48.130;11.630;2023-05-07T05:14:55;9.15;;;3.25;;
21122;SDS011;10719;48.130;11.630;2023-05-07T05:17:20;8.18;;;3.05;;
21122;SDS011;10719;48.130;11.630;2023-05-07T05:19:46;6.97;;;3.10;;
21122;SDS011;10719;48.130;11.630;2023-05-07T05:22:12;6.93;;;2.65;;
21122;SDS011;10719;48.130;11.630;2023-05-07T05:24:37;7.80;;;3.30;;
21122;SDS011;10719;48.130;11.630;2023-05-07T05:27:03;6.75;;;2.78;;
21122;SDS011;10719;48.130;11.630;2023-05-07T05:29:29;7.43;;;2.95;;
21122;SDS011;10719;48.130;11.630;2023-05-07T05:31:56;7.55;;;2.88;;
21122;SDS011;10719;48.130;11.630;2023-05-07T05:34:22;8.20;;;3.00;;
21122;SDS011;10719;48.130;11.630;2023-05-07T05:36:47;10.18;;;3.03;;
21122;SDS011;10719;48.130;11.630;2023-05-07T05:39:13;6.53;;;2.78;;
21122;SDS011;10719;48.130;11.630;2023-05-07T05:41:39;7.82;;;2.95;;
21122;SDS011;10719;48.130;11.630;2023-05-07T05:44:05;10.02;;;3.63;;
21122;SDS011;10719;48.130;11.630;2023-05-07T05:46:31;6.68;;;3.15;;
21122;SDS011;10719;48.130;11.630;2023-05-07T05:48:57;8.02;;;3.22;;
21122;SDS011;10719;48.130;11.630;2023-05-07T05:51:22;8.05;;;3.35;;
21122;SDS011;10719;48.130;11.630;2023-05-07T05:53:48;7.68;;;3.40;;
21122;SDS011;10719;48.130;11.630;2023-05-07T05:56:14;9.95;;;3.47;;
21122;SDS011;10719;48.130;11.630;2023-05-07T05:58:40;5.97;;;2.88;;
21122;SDS011;10719;48.130;11.630;2023-05-07T06:01:06;6.28;;;2.88;;
21122;SDS011;10719;48.130;11.630;2023-05-07T06:03:32;6.25;;;3.00;;
21122;SDS011;10719;48.130;11.630;2023-05-07T06:05:58;10.15;;;4.00;;
21122;SDS011;10719;48.130;11.630;2023-05-07T06:08:25;7.97;;;3.33;;
21122;SDS011;10719;48.130;11.630;2023-05-07T06:10:50;8.18;;;3.50;;
21122;SDS011;10719;48.130;11.630;2023-05-07T06:13:16;7.47;;;3.42;;
21122;SDS011;10719;48.130;11.630;2023-05-07T06:15:42;10.18;;;3.70;;
21122;SDS011;10719;48.130;11.630;2023-05-07T06:18:08;7.82;;;3.47;;
21122;SDS011;10719;48.130;11.630;2023-05-07T06:20:33;7.82;;;3.22;;
21122;SDS011;10719;48.130;11.630;2023-05-07T06:22:59;6.45;;;3.08;;
21122;SDS011;10719;48.130;11.630;2023-05-07T06:25:25;7.57;;;3.25;;
21122;SDS011;10719;48.130;11.630;2023-05-07T06:27:50;5.00;;;2.78;;
21122;SDS011;10719;48.130;11.630;2023-05-07T06:30:16;6.95;;;2.92;;
21122;SDS011;10719;48.130;11.630;2023-05-07T06:32:41;6.70;;;2.78;;
21122;SDS011;10719;48.130;11.630;2023-05-07T06:35:07;6.72;;;2.83;;
21122;SDS011;10719;48.130;11.630;2023-05-07T06:37:33;6.78;;;2.40;;
21122;SDS011;10719;48.130;11.630;2023-05-07T06:39:58;8.40;;;2.92;;
21122;SDS011;10719;48.130;11.630;2023-05-07T06:42:24;6.82;;;2.88;;
21122;SDS011;10719;48.130;11.630;2023-05-07T06:44:50;9.02;;;2.85;;
21122;SDS011;10719;48.130;11.630;2023-05-07T06:47:15;6.00;;;2.63;;
21122;SDS011;10719;48.130;11.630;2023-05-07T06:49:41;9.57;;;2.75;;
21122;SDS011;10719;48.130;11.630;2023-05-07T06:52:07;8.75;;;2.97;;
21122;SDS011;10719;48.130;11.630;2023-05-07T06:54:32;8.27;;;2.75;;
21122;SDS011;10719;48.130;11.630;2023-05-07T06:56:58;8.05;;;2.65;;
21122;SDS011;10719;48.130;11.630;2023-05-07T06:59:23;5.47;;;2.17;;
21122;SDS011;10719;48.130;11.630;2023-05-07T07:01:49;5.68;;;2.47;;
21122;SDS011;10719;48.130;11.630;2023-05-07T07:04:15;4.80;;;1.95;;
21122;SDS011;10719;48.130;11.630;2023-05-07T07:06:40;4.68;;;2.03;;
21122;SDS011;10719;48.130;11.630;2023-05-07T07:09:06;6.25;;;2.33;;
21122;SDS011;10719;48.130;11.630;2023-05-07T07:11:31;6.82;;;2.40;;
21122;SDS011;10719;48.130;11.630;2023-05-07T07:13:57;4.80;;;2.17;;
21122;SDS011;10719;48.130;11.630;2023-05-07T07:16:23;3.33;;;1.98;;
21122;SDS011;10719;48.130;11.630;2023-05-07T07:18:49;7.78;;;2.42;;
21122;SDS011;10719;48.130;11.630;2023-05-07T07:21:15;8.05;;;2.60;;
21122;SDS011;10719;48.130;11.630;2023-05-07T07:23:41;6.65;;;2.30;;
21122;SDS011;10719;48.130;11.630;2023-05-07T07:26:06;4.50;;;2.10;;
21122;SDS011;10719;48.130;11.630;2023-05-07T07:28:32;6.80;;;2.38;;
21122;SDS011;10719;48.130;11.630;2023-05-07T07:30:58;6.45;;;2.25;;
21122;SDS011;10719;48.130;11.630;2023-05-07T07:33:23;4.50;;;1.85;;
21122;SDS011;10719;48.130;11.630;2023-05-07T07:35:49;6.35;;;2.08;;
21122;SDS011;10719;48.130;11.630;2023-05-07T07:38:15;8.23;;;1.83;;
21122;SDS011;10719;48.130;11.630;2023-05-07T07:40:40;6.30;;;2.60;;
21122;SDS011;10719;48.130;11.630;2023-05-07T07:43:06;3.75;;;1.88;;
21122;SDS011;10719;48.130;11.630;2023-05-07T07:45:31;5.72;;;2.38;;
21122;SDS011;10719;48.130;11.630;2023-05-07T07:47:57;7.72;;;2.58;;
21122;SDS011;10719;48.130;11.630;2023-05-07T07:50:22;7.47;;;2.40;;
21122;SDS011;10719;48.130;11.630;2023-05-07T07:52:48;8.95;;;3.10;;
21122;SDS011;10719;48.130;11.630;2023-05-07T07:55:14;6.00;;;2.60;;
21122;SDS011;10719;48.130;11.630;2023-05-07T07:57:45;6.40;;;2.70;;
21122;SDS011;10719;48.130;11.630;2023-05-07T08:00:11;8.52;;;2.53;;
21122;SDS011;10719;48.130;11.630;2023-05-07T08:02:37;5.47;;;2.10;;
21122;SDS011;10719;48.130;11.630;2023-05-07T08:05:03;3.22;;;1.65;;
21122;SDS011;10719;48.130;11.630;2023-05-07T08:07:29;5.78;;;2.45;;
21122;SDS011;10719;48.130;11.630;2023-05-07T08:09:54;5.03;;;1.95;;
21122;SDS011;10719;48.130;11.630;2023-05-07T08:12:20;9.70;;;2.33;;
21122;SDS011;10719;48.130;11.630;2023-05-07T08:14:46;6.53;;;2.20;;
21122;SDS011;10719;48.130;11.630;2023-05-07T08:17:11;4.25;;;2.05;;
21122;SDS011;10719;48.130;11.630;2023-05-07T08:19:38;5.25;;;2.10;;
21122;SDS011;10719;48.130;11.630;2023-05-07T08:22:03;4.50;;;2.15;;
21122;SDS011;10719;48.130;11.630;2023-05-07T08:24:30;7.32;;;2.10;;
21122;SDS011;10719;48.130;11.630;2023-05-07T08:26:56;5.65;;;2.40;;
21122;SDS011;10719;48.130;11.630;2023-05-07T08:29:21;5.40;;;2.10;;
21122;SDS011;10719;48.130;11.630;2023-05-07T08:31:47;6.32;;;1.90;;
21122;SDS011;10719;48.130;11.630;2023-05-07T08:34:12;5.43;;;2.13;;
21122;SDS011;10719;48.130;11.630;2023-05-07T08:36:38;3.53;;;1.60;;
21122;SDS011;10719;48.130;11.630;2023-05-07T08:39:06;4.28;;;1.67;;
21122;SDS011;10719;48.130;11.630;2023-05-07T08:41:32;5.68;;;2.00;;
21122;SDS011;10719;48.130;11.630;2023-05-07T08:43:58;3.97;;;1.60;;
21122;SDS011;10719;48.130;11.630;2023-05-07T08:46:25;4.53;;;1.92;;
21122;SDS011;10719;48.130;11.630;2023-05-07T08:48:55;5.40;;;2.08;;
21122;SDS011;10719;48.130;11.630;2023-05-07T08:51:21;5.07;;;1.77;;
21122;SDS011;10719;48.130;11.630;2023-05-07T08:53:47;4.07;;;1.70;;
21122;SDS011;10719;48.130;11.630;2023-05-07T08:56:14;4.50;;;2.03;;
21122;SDS011;10719;48.130;11.630;2023-05-07T08:58:41;7.05;;;1.95;;
21122;SDS011;10719;48.130;11.630;2023-05-07T09:01:08;3.33;;;2.00;;
21122;SDS011;10719;48.130;11.630;2023-05-07T09:03:37;6.45;;;2.00;;
21122;SDS011;10719;48.130;11.630;2023-05-07T09:06:04;5.82;;;2.20;;
21122;SDS011;10719;48.130;11.630;2023-05-07T09:08:29;3.28;;;1.55;;
21122;SDS011;10719;48.130;11.630;2023-05-07T09:10:57;5.85;;;2.00;;
21122;SDS011;10719;48.130;11.630;2023-05-07T09:13:22;4.40;;;1.83;;
21122;SDS011;10719;48.130;11.630;2023-05-07T09:15:48;3.13;;;1.63;;
21122;SDS011;10719;48.130;11.630;2023-05-07T09:18:14;9.10;;;2.20;;
21122;SDS011;10719;48.130;11.630;2023-05-07T09:20:40;2.30;;;1.67;;
21122;SDS011;10719;48.130;11.630;2023-05-07T09:23:06;4.47;;;1.98;;
21122;SDS011;10719;48.130;11.630;2023-05-07T09:25:34;5.90;;;2.00;;
21122;SDS011;10719;48.130;11.630;2023-05-07T09:28:01;2.88;;;1.60;;
21122;SDS011;10719;48.130;11.630;2023-05-07T09:30:28;5.13;;;2.33;;
21122;SDS011;10719;48.130;11.630;2023-05-07T09:32:54;6.00;;;1.67;;
21122;SDS011;10719;48.130;11.630;2023-05-07T09:35:21;3.92;;;1.75;;
21122;SDS011;10719;48.130;11.630;2023-05-07T09:37:49;5.00;;;1.70;;
21122;SDS011;10719;48.130;11.630;2023-05-07T09:40:24;7.75;;;1.80;;
21122;SDS011;10719;48.130;11.630;2023-05-07T09:42:51;5.07;;;1.88;;
21122;SDS011;10719;48.130;11.630;2023-05-07T09:45:27;5.22;;;1.98;;
21122;SDS011;10719;48.130;11.630;2023-05-07T09:47:54;3.78;;;1.50;;
21122;SDS011;10719;48.130;11.630;2023-05-07T09:50:22;3.05;;;1.67;;
21122;SDS011;10719;48.130;11.630;2023-05-07T09:52:54;3.83;;;2.00;;
21122;SDS011;10719;48.130;11.630;2023-05-07T09:55:20;4.68;;;1.60;;
21122;SDS011;10719;48.130;11.630;2023-05-07T09:57:49;4.25;;;1.70;;
21122;SDS011;10719;48.130;11.630;2023-05-07T10:00:16;5.93;;;1.70;;
21122;SDS011;10719;48.130;11.630;2023-05-07T10:02:44;2.35;;;1.40;;
21122;SDS011;10719;48.130;11.630;2023-05-07T10:05:14;3.53;;;1.27;;
21122;SDS011;10719;48.130;11.630;2023-05-07T10:07:40;4.00;;;1.50;;
21122;SDS011;10719;48.130;11.630;2023-05-07T10:10:06;4.63;;;1.88;;
21122;SDS011;10719;48.130;11.630;2023-05-07T10:12:32;4.90;;;1.80;;
21122;SDS011;10719;48.130;11.630;2023-05-07T10:15:04;4.65;;;1.83;;
21122;SDS011;10719;48.130;11.630;2023-05-07T10:17:37;3.10;;;1.67;;
21122;SDS011;10719;48.130;11.630;2023-05-07T10:20:04;6.72;;;1.83;;
21122;SDS011;10719;48.130;11.630;2023-05-07T10:22:32;6.85;;;1.88;;
21122;SDS011;10719;48.130;11.630;2023-05-07T10:25:25;3.42;;;1.40;;
21122;SDS011;10719;48.130;11.630;2023-05-07T10:27:55;3.35;;;1.63;;
21122;SDS011;10719;48.130;11.630;2023-05-07T10:33:03;2.40;;;1.17;;
21122;SDS011;10719;48.130;11.630;2023-05-07T10:35:37;5.72;;;1.25;;
21122;SDS011;10719;48.130;11.630;2023-05-07T10:38:06;1.58;;;1.02;;
21122;SDS011;10719;48.130;11.630;2023-05-07T10:40:32;3.33;;;1.30;;
21122;SDS011;10719;48.130;11.630;2023-05-07T10:42:59;2.58;;;1.20;;
21122;SDS011;10719;48.130;11.630;2023-05-07T10:45:26;3.13;;;1.40;;
21122;SDS011;10719;48.130;11.630;2023-05-07T10:48:09;5.78;;;1.80;;
21122;SDS011;10719;48.130;11.630;2023-05-07T10:50:39;5.43;;;1.70;;
21122;SDS011;10719;48.130;11.630;2023-05-07T10:55:47;4.13;;;1.25;;
21122;SDS011;10719;48.130;11.630;2023-05-07T10:58:29;5.22;;;1.88;;
21122;SDS011;10719;48.130;11.630;2023-05-07T11:00:58;6.25;;;1.88;;
21122;SDS011;10719;48.130;11.630;2023-05-07T11:03:26;4.60;;;1.40;;
21122;SDS011;10719;48.130;11.630;2023-05-07T11:06:12;7.95;;;2.83;;
21122;SDS011;10719;48.130;11.630;2023-05-07T11:11:19;5.32;;;2.08;;
21122;SDS011;10719;48.130;11.630;2023-05-07T11:13:48;4.88;;;2.05;;
21122;SDS011;10719;48.130;11.630;2023-05-07T11:16:20;4.15;;;1.90;;
21122;SDS011;10719;48.130;11.630;2023-05-07T11:18:48;8.30;;;2.78;;
21122;SDS011;10719;48.130;11.630;2023-05-07T11:24:13;6.20;;;2.10;;
21122;SDS011;10719;48.130;11.630;2023-05-07T11:29:15;6.10;;;2.33;;
21122;SDS011;10719;48.130;11.630;2023-05-07T11:31:40;6.30;;;2.33;;
21122;SDS011;10719;48.130;11.630;2023-05-07T11:34:06;5.13;;;2.20;;
21122;SDS011;10719;48.130;11.630;2023-05-07T11:36:33;6.35;;;2.20;;
21122;SDS011;10719;48.130;11.630;2023-05-07T11:38:59;3.83;;;2.03;;
21122;SDS011;10719;48.130;11.630;2023-05-07T11:41:34;5.57;;;2.40;;
21122;SDS011;10719;48.130;11.630;2023-05-07T11:44:01;6.63;;;2.13;;
21122;SDS011;10719;48.130;11.630;2023-05-07T11:46:27;6.93;;;2.10;;
21122;SDS011;10719;48.130;11.630;2023-05-07T11:48:54;9.57;;;2.63;;
21122;SDS011;10719;48.130;11.630;2023-05-07T11:51:20;4.82;;;2.08;;
21122;SDS011;10719;48.130;11.630;2023-05-07T11:53:47;5.72;;;2.30;;
21122;SDS011;10719;48.130;11.630;2023-05-07T11:56:14;4.40;;;2.20;;
21122;SDS011;10719;48.130;11.630;2023-05-07T11:58:41;5.70;;;2.28;;
21122;SDS011;10719;48.130;11.630;2023-05-07T12:01:08;6.75;;;2.38;;
21122;SDS011;10719;48.130;11.630;2023-05-07T12:03:34;5.47;;;2.10;;
21122;SDS011;10719;48.130;11.630;2023-05-07T12:06:02;7.30;;;2.13;;
21122;SDS011;10719;48.130;11.630;2023-05-07T12:08:30;4.80;;;2.22;;
21122;SDS011;10719;48.130;11.630;2023-05-07T12:10:56;5.20;;;2.10;;
21122;SDS011;10719;48.130;11.630;2023-05-07T12:13:22;5.43;;;2.20;;
21122;SDS011;10719;48.130;11.630;2023-05-07T12:15:53;5.47;;;2.03;;
21122;SDS011;10719;48.130;11.630;2023-05-07T12:18:20;6.43;;;2.03;;
21122;SDS011;10719;48.130;11.630;2023-05-07T12:20:46;6.57;;;1.90;;
21122;SDS011;10719;48.130;11.630;2023-05-07T12:23:13;2.92;;;1.65;;
21122;SDS011;10719;48.130;11.630;2023-05-07T12:25:40;6.18;;;2.10;;
21122;SDS011;10719;48.130;11.630;2023-05-07T12:28:12;3.97;;;1.88;;
21122;SDS011;10719;48.130;11.630;2023-05-07T12:30:41;6.97;;;2.00;;
21122;SDS011;10719;48.130;11.630;2023-05-07T12:33:08;6.82;;;1.83;;
21122;SDS011;10719;48.130;11.630;2023-05-07T12:35:39;4.82;;;1.80;;
21122;SDS011;10719;48.130;11.630;2023-05-07T12:38:12;4.13;;;1.65;;
21122;SDS011;10719;48.130;11.630;2023-05-07T12:40:43;4.97;;;1.70;;
21122;SDS011;10719;48.130;11.630;2023-05-07T12:43:26;5.18;;;1.73;;
21122;SDS011;10719;48.130;11.630;2023-05-07T12:45:53;2.45;;;1.45;;
21122;SDS011;10719;48.130;11.630;2023-05-07T12:48:20;7.43;;;1.83;;
21122;SDS011;10719;48.130;11.630;2023-05-07T12:50:53;3.95;;;1.55;;
21122;SDS011;10719;48.130;11.630;2023-05-07T12:53:20;2.95;;;1.30;;
21122;SDS011;10719;48.130;11.630;2023-05-07T12:55:47;6.35;;;1.80;;
21122;SDS011;10719;48.130;11.630;2023-05-07T12:58:18;3.75;;;1.70;;
21122;SDS011;10719;48.130;11.630;2023-05-07T13:00:55;3.65;;;1.58;;
21122;SDS011;10719;48.130;11.630;2023-05-07T13:03:23;2.50;;;1.38;;
21122;SDS011;10719;48.130;11.630;2023-05-07T13:05:51;2.20;;;1.17;;
21122;SDS011;10719;48.130;11.630;2023-05-07T13:08:24;2.05;;;1.00;;
21122;SDS011;10719;48.130;11.630;2023-05-07T13:10:51;2.08;;;1.10;;
21122;SDS011;10719;48.130;11.630;2023-05-07T13:13:18;2.78;;;1.40;;
21122;SDS011;10719;48.130;11.630;2023-05-07T13:15:44;2.42;;;1.27;;
21122;SDS011;10719;48.130;11.630;2023-05-07T13:18:09;2.78;;;1.08;;
21122;SDS011;10719;48.130;11.630;2023-05-07T13:20:36;4.63;;;1.77;;
21122;SDS011;10719;48.130;11.630;2023-05-07T13:23:01;4.55;;;1.35;;
21122;SDS011;10719;48.130;11.630;2023-05-07T13:25:29;3.03;;;1.35;;
21122;SDS011;10719;48.130;11.630;2023-05-07T13:27:56;2.20;;;1.33;;
21122;SDS011;10719;48.130;11.630;2023-05-07T13:30:22;3.17;;;1.35;;
21122;SDS011;10719;48.130;11.630;2023-05-07T13:32:48;5.15;;;1.52;;
21122;SDS011;10719;48.130;11.630;2023-05-07T13:35:15;4.93;;;1.48;;
21122;SDS011;10719;48.130;11.630;2023-05-07T13:37:41;2.63;;;1.20;;
21122;SDS011;10719;48.130;11.630;2023-05-07T13:40:07;4.10;;;1.48;;
21122;SDS011;10719;48.130;11.630;2023-05-07T13:42:33;2.30;;;1.10;;
21122;SDS011;10719;48.130;11.630;2023-05-07T13:44:58;3.65;;;1.20;;
21122;SDS011;10719;48.130;11.630;2023-05-07T13:47:30;2.08;;;1.20;;
21122;SDS011;10719;48.130;11.630;2023-05-07T13:49:56;2.95;;;1.30;;
21122;SDS011;10719;48.130;11.630;2023-05-07T13:52:21;3.78;;;1.50;;
21122;SDS011;10719;48.130;11.630;2023-05-07T13:54:47;3.25;;;1.27;;
21122;SDS011;10719;48.130;11.630;2023-05-07T13:57:13;3.00;;;1.30;;
21122;SDS011;10719;48.130;11.630;2023-05-07T13:59:38;1.42;;;1.02;;
21122;SDS011;10719;48.130;11.630;2023-05-07T14:02:04;3.85;;;1.38;;
21122;SDS011;10719;48.130;11.630;2023-05-07T14:04:30;4.93;;;1.83;;
21122;SDS011;10719;48.130;11.630;2023-05-07T14:06:56;5.00;;;1.23;;
21122;SDS011;10719;48.130;11.630;2023-05-07T14:09:21;3.13;;;1.45;;
21122;SDS011;10719;48.130;11.630;2023-05-07T14:11:47;3.08;;;1.20;;
21122;SDS011;10719;48.130;11.630;2023-05-07T14:14:16;2.72;;;1.20;;
21122;SDS011;10719;48.130;11.630;2023-05-07T14:16:42;2.97;;;1.27;;
21122;SDS011;10719;48.130;11.630;2023-05-07T14:19:07;3.40;;;1.27;;
21122;SDS011;10719;48.130;11.630;2023-05-07T14:21:33;2.42;;;1.13;;
21122;SDS011;10719;48.130;11.630;2023-05-07T14:23:59;6.72;;;2.05;;
21122;SDS011;10719;48.130;11.630;2023-05-07T14:26:25;4.32;;;1.40;;
21122;SDS011;10719;48.130;11.630;2023-05-07T14:28:52;4.50;;;1.90;;
21122;SDS011;10719;48.130;11.630;2023-05-07T14:31:19;3.70;;;1.80;;
21122;SDS011;10719;48.130;11.630;2023-05-07T14:33:45;3.80;;;1.60;;
21122;SDS011;10719;48.130;11.630;2023-05-07T14:36:11;5.28;;;1.90;;
21122;SDS011;10719;48.130;11.630;2023-05-07T14:38:37;5.15;;;1.50;;
21122;SDS011;10719;48.130;11.630;2023-05-07T14:41:03;4.05;;;1.98;;